Time;durP1;ratioP1;P1;durP2;ratioP2;P2;SDS_P1;SDS_P2;PMS_P1;PMS_P2;Temp;Humidity;BMP_temperature;BMP_pressure;BME280_temperature;BME280_humidity;BME280_pressure;Samples;Min_cycle;Max_cycle;Signal;HPM_P1;HPM_P2
2023/12/04 00:01:44;;;;;;;0.70;0.70;;;;;;;-0.46;100.00;99845.44;5109217;28;20208;-62
2023/12/04 00:04:13;;;;;;;1.13;0.43;;;;;;;-0.46;100.00;99847.97;5110245;28;20189;-62
2023/12/04 00:06:40;;;;;;;1.60;1.03;;;;;;;-0.45;100.00;99852.13;5109758;28;20681;-62
2023/12/04 00:09:06;;;;;;;0.50;0.50;;;;;;;-0.48;100.00;99854.69;5109852;28;20202;-62
2023/12/04 00:11:33;;;;;;;3.20;0.80;;;;;;;-0.49;100.00;99855.53;5109766;28;20201;-62
2023/12/04 00:14:00;;;;;;;1.10;0.43;;;;;;;-0.52;100.00;99868.16;5109602;28;20613;-63
2023/12/04 00:16:27;;;;;;;0.60;0.60;;;;;;;-0.48;100.00;99869.75;5109666;28;20656;-62
2023/12/04 00:18:54;;;;;;;1.20;1.03;;;;;;;-0.41;100.00;99873.81;5109724;28;20425;-62
2023/12/04 00:21:22;;;;;;;0.50;0.50;;;;;;;-0.47;100.00;99873.91;5109718;28;20201;-62
2023/12/04 00:23:49;;;;;;;0.47;0.47;;;;;;;-0.47;100.00;99872.25;5109833;28;20201;-62
2023/12/04 00:26:16;;;;;;;0.40;0.40;;;;;;;-0.45;100.00;99874.72;5109952;28;20235;-62
2023/12/04 00:28:43;;;;;;;1.50;1.00;;;;;;;-0.49;100.00;99873.94;5109735;28;20458;-62
2023/12/04 00:31:10;;;;;;;0.30;0.30;;;;;;;-0.48;100.00;99875.59;5109550;28;20470;-62
2023/12/04 00:33:37;;;;;;;0.37;0.37;;;;;;;-0.48;100.00;99870.56;5109449;28;20232;-62
2023/12/04 00:36:04;;;;;;;1.03;0.97;;;;;;;-0.47;100.00;99876.41;5109328;28;20700;-62
2023/12/04 00:38:33;;;;;;;0.40;0.40;;;;;;;-0.51;100.00;99882.34;5109431;28;20204;-62
2023/12/04 00:40:59;;;;;;;0.60;0.60;;;;;;;-0.51;100.00;99884.88;5109209;28;20244;-63
2023/12/04 00:43:26;;;;;;;2.27;1.27;;;;;;;-0.62;100.00;99892.53;5109222;28;20435;-62
2023/12/04 00:45:53;;;;;;;0.87;0.57;;;;;;;-0.59;100.00;99895.00;5109479;28;20865;-62
2023/12/04 00:48:20;;;;;;;0.70;0.70;;;;;;;-0.61;100.00;99895.88;5109411;28;20208;-62
2023/12/04 00:50:46;;;;;;;0.80;0.80;;;;;;;-0.62;100.00;99896.72;5109027;28;20459;-63
2023/12/04 00:53:13;;;;;;;0.50;0.50;;;;;;;-0.60;100.00;99900.06;5109089;28;20450;-62
2023/12/04 00:55:41;;;;;;;1.97;0.70;;;;;;;-0.62;100.00;99906.78;5109241;28;20470;-62
2023/12/04 00:58:08;;;;;;;1.63;0.80;;;;;;;-0.69;100.00;99903.53;5109037;28;20568;-62
2023/12/04 01:00:35;;;;;;;0.43;0.43;;;;;;;-0.68;100.00;99903.50;5109046;28;20228;-62
2023/12/04 01:03:02;;;;;;;0.40;0.40;;;;;;;-0.62;100.00;99906.78;5108958;28;20197;-62
2023/12/04 01:05:28;;;;;;;0.47;0.47;;;;;;;-0.65;100.00;99904.31;5108971;28;20750;-62
2023/12/04 01:07:55;;;;;;;1.03;0.90;;;;;;;-0.74;100.00;99908.59;5108824;28;20443;-62
2023/12/04 01:10:22;;;;;;;0.37;0.37;;;;;;;-0.75;100.00;99911.97;5109111;28;20201;-62
2023/12/04 01:12:50;;;;;;;0.53;0.53;;;;;;;-0.75;100.00;99906.13;5108683;28;20201;-62
2023/12/04 01:15:17;;;;;;;2.57;1.10;;;;;;;-0.80;100.00;99908.69;5108977;28;20447;-62
2023/12/04 01:17:44;;;;;;;2.30;0.80;;;;;;;-0.81;100.00;99917.06;5108581;28;20470;-62
2023/12/04 01:20:11;;;;;;;0.60;0.60;;;;;;;-0.85;100.00;99915.44;5109134;28;20490;-62
2023/12/04 01:22:38;;;;;;;0.83;0.83;;;;;;;-0.90;100.00;99922.22;5108883;28;20700;-62
2023/12/04 01:25:06;;;;;;;1.17;1.17;;;;;;;-0.93;100.00;99915.53;5109123;28;20198;-62
2023/12/04 01:27:35;;;;;;;1.40;1.00;;;;;;;-0.87;100.00;99922.19;5108481;28;20483;-62
2023/12/04 01:30:03;;;;;;;0.63;0.50;;;;;;;-0.91;100.00;99920.53;5108848;28;20534;-62
2023/12/04 01:32:30;;;;;;;0.63;0.63;;;;;;;-0.98;100.00;99926.50;5108671;28;20204;-62
2023/12/04 01:34:57;;;;;;;1.33;0.97;;;;;;;-0.99;100.00;99922.28;5108629;28;20458;-62
2023/12/04 01:37:24;;;;;;;1.90;0.77;;;;;;;-0.98;100.00;99926.50;5108920;28;20443;-62
2023/12/04 01:39:50;;;;;;;1.10;1.03;;;;;;;-0.99;100.00;99919.78;5108443;28;20495;-62
2023/12/04 01:42:17;;;;;;;2.73;0.63;;;;;;;-1.00;100.00;99916.44;5108314;28;20443;-62
2023/12/04 01:44:44;;;;;;;1.07;0.93;;;;;;;-1.04;100.00;99914.00;5107282;28;20466;-62
2023/12/04 01:47:13;;;;;;;0.50;0.50;;;;;;;-1.09;100.00;99921.59;5107470;28;20207;-62
2023/12/04 01:49:40;;;;;;;0.83;0.80;;;;;;;-1.06;100.00;99919.03;5108705;28;20447;-62
2023/12/04 01:52:07;;;;;;;0.43;0.43;;;;;;;-1.12;100.00;99928.31;5108626;28;20443;-62
2023/12/04 01:54:34;;;;;;;0.57;0.53;;;;;;;-1.14;100.00;99929.16;5108616;28;20530;-62
2023/12/04 01:57:03;;;;;;;1.73;0.90;;;;;;;-1.20;100.00;99929.22;5108375;28;20451;-62
2023/12/04 01:59:30;;;;;;;1.83;1.07;;;;;;;-1.20;100.00;99929.22;5108352;28;20720;-62
2023/12/04 02:01:57;;;;;;;1.90;1.50;;;;;;;-1.25;100.00;99930.97;5108286;28;20478;-62
2023/12/04 02:04:26;;;;;;;0.87;0.87;;;;;;;-1.25;100.00;99935.13;5108305;28;20450;-62
2023/12/04 02:06:53;;;;;;;0.63;0.50;;;;;;;-1.26;100.00;99938.50;5108174;28;20205;-62
2023/12/04 02:09:20;;;;;;;0.43;0.43;;;;;;;-1.31;100.00;99946.09;5108356;28;20462;-62
2023/12/04 02:11:47;;;;;;;1.10;1.07;;;;;;;-1.30;100.00;99950.25;5108183;28;20964;-62
2023/12/04 02:14:14;;;;;;;0.77;0.77;;;;;;;-1.27;100.00;99951.91;5108145;28;20836;-62
2023/12/04 02:16:43;;;;;;;0.67;0.67;;;;;;;-1.27;100.00;99952.72;5108467;28;20201;-63
2023/12/04 02:19:13;;;;;;;0.40;0.40;;;;;;;-1.31;100.00;99951.09;5108215;28;20450;-62
2023/12/04 02:21:41;;;;;;;0.30;0.30;;;;;;;-1.31;100.00;99951.09;5108244;28;20904;-62
2023/12/04 02:24:10;;;;;;;1.30;1.20;;;;;;;-1.33;100.00;99950.28;5109869;28;20203;-62
2023/12/04 02:26:48;;;;;;;0.67;0.67;;;;;;;-1.35;100.00;99949.44;5111976;28;20220;-62
2023/12/04 02:29:27;;;;;;;0.63;0.63;;;;;;;-1.43;100.00;99957.03;5111907;28;20442;-62
2023/12/04 02:31:56;;;;;;;1.57;1.30;;;;;;;-1.43;100.00;99957.03;5111585;28;20439;-62
2023/12/04 02:34:25;;;;;;;0.40;0.40;;;;;;;-1.41;100.00;99962.06;5112087;28;20831;-63
2023/12/04 02:36:53;;;;;;;1.60;0.77;;;;;;;-1.41;100.00;99959.53;5111956;28;20443;-62
2023/12/04 02:39:22;;;;;;;0.47;0.47;;;;;;;-1.42;100.00;99957.91;5111708;28;20454;-62
2023/12/04 02:41:49;;;;;;;0.67;0.67;;;;;;;-1.36;100.00;99957.84;5111997;28;20518;-62
2023/12/04 02:44:16;;;;;;;0.40;0.40;;;;;;;-1.33;100.00;99962.81;5111752;28;20469;-62
2023/12/04 02:46:43;;;;;;;1.03;0.63;;;;;;;-1.36;100.00;99972.88;5111576;28;20552;-62
2023/12/04 02:49:09;;;;;;;0.90;0.50;;;;;;;-1.45;100.00;99981.31;5111539;28;20447;-62
2023/12/04 02:51:36;;;;;;;0.73;0.73;;;;;;;-1.48;100.00;99983.03;5111404;28;20877;-62
2023/12/04 02:54:03;;;;;;;0.60;0.60;;;;;;;-1.54;100.00;99993.94;5111516;28;20454;-62
2023/12/04 02:56:31;;;;;;;0.60;0.60;;;;;;;-1.52;100.00;99991.41;5111314;28;20451;-62
2023/12/04 02:58:58;;;;;;;0.40;0.40;;;;;;;-1.52;100.00;99978.88;5111469;28;20490;-62
2023/12/04 03:01:25;;;;;;;0.40;0.40;;;;;;;-1.57;100.00;99983.94;5111326;28;20503;-62
2023/12/04 03:03:51;;;;;;;1.20;0.97;;;;;;;-1.62;100.00;99980.63;5111166;28;20959;-62
2023/12/04 03:06:18;;;;;;;0.20;0.20;;;;;;;-1.62;100.00;99980.63;5111333;28;20447;-62
2023/12/04 03:08:45;;;;;;;0.43;0.43;;;;;;;-1.64;100.00;99988.16;5111174;28;20458;-62
2023/12/04 03:11:12;;;;;;;0.13;0.13;;;;;;;-1.62;100.00;99983.16;5111086;28;20451;-62
2023/12/04 03:13:40;;;;;;;0.83;0.83;;;;;;;-1.57;100.00;99988.09;5110966;28;21101;-62
2023/12/04 03:16:15;;;;;;;1.37;0.60;;;;;;;-1.62;100.00;99983.97;5111126;28;20458;-62
2023/12/04 03:18:42;;;;;;;1.27;1.17;;;;;;;-1.60;100.00;99984.78;5110881;28;20453;-62
2023/12/04 03:21:09;;;;;;;0.60;0.60;;;;;;;-1.61;100.00;99985.63;5110816;28;20491;-62
2023/12/04 03:23:35;;;;;;;0.30;0.30;;;;;;;-1.60;100.00;99987.31;5110938;28;20442;-62
2023/12/04 03:26:02;;;;;;;0.40;0.40;;;;;;;-1.65;100.00;99986.50;5110607;28;20467;-62
2023/12/04 03:28:29;;;;;;;0.30;0.30;;;;;;;-1.64;100.00;99985.66;5110742;28;20455;-62
2023/12/04 03:30:57;;;;;;;0.83;0.50;;;;;;;-1.64;100.00;99987.31;5109149;28;20486;-62
2023/12/04 03:33:24;;;;;;;0.20;0.20;;;;;;;-1.66;100.00;99982.34;5109097;28;20458;-63
2023/12/04 03:35:51;;;;;;;0.60;0.60;;;;;;;-1.58;100.00;99991.47;5110293;28;20454;-62
2023/12/04 03:38:18;;;;;;;0.67;0.67;;;;;;;-1.66;100.00;99994.88;5110512;28;20455;-62
2023/12/04 03:40:44;;;;;;;0.87;0.80;;;;;;;-1.77;100.00;99986.59;5110227;28;20498;-63
2023/12/04 03:43:11;;;;;;;0.30;0.30;;;;;;;-1.74;100.00;99991.59;5110417;28;20443;-63
2023/12/04 03:45:38;;;;;;;0.30;0.30;;;;;;;-1.77;100.00;99990.78;5110214;28;20974;-62
2023/12/04 03:48:07;;;;;;;0.40;0.40;;;;;;;-1.68;100.00;99991.53;5110646;28;20447;-62
2023/12/04 03:50:33;;;;;;;2.57;1.03;;;;;;;-1.65;100.00;99996.53;5110486;28;20443;-62
2023/12/04 03:53:00;;;;;;;0.40;0.40;;;;;;;-1.73;100.00;99995.75;5110291;28;20450;-62
2023/12/04 03:55:27;;;;;;;0.27;0.27;;;;;;;-1.83;100.00;100001.69;5110436;28;20447;-62
2023/12/04 03:57:54;;;;;;;0.20;0.20;;;;;;;-1.80;100.00;100003.31;5110211;28;20451;-62
2023/12/04 04:00:21;;;;;;;1.03;0.60;;;;;;;-1.86;100.00;100006.72;5110272;28;20513;-62
2023/12/04 04:02:48;;;;;;;0.90;0.77;;;;;;;-1.88;100.00;100010.91;5110020;28;20465;-62
2023/12/04 04:05:16;;;;;;;0.60;0.60;;;;;;;-1.89;100.00;100001.72;5109868;28;20443;-62
2023/12/04 04:07:43;;;;;;;1.17;0.70;;;;;;;-1.90;100.00;99998.38;5109791;28;20443;-63
2023/12/04 04:10:10;;;;;;;0.40;0.40;;;;;;;-1.92;100.00;99996.72;5110165;28;20835;-62
2023/12/04 04:12:37;;;;;;;0.60;0.60;;;;;;;-1.95;100.00;99994.22;5109835;28;20443;-62
2023/12/04 04:15:04;;;;;;;0.23;0.23;;;;;;;-1.93;100.00;99995.06;5109829;28;20967;-62
2023/12/04 04:17:33;;;;;;;1.57;1.03;;;;;;;-1.96;100.00;99995.09;5109527;28;20470;-62
2023/12/04 04:20:00;;;;;;;1.50;1.00;;;;;;;-2.00;100.00;99999.28;5109930;28;20904;-63
2023/12/04 04:22:28;;;;;;;0.57;0.57;;;;;;;-2.06;100.00;100005.19;5109635;28;20520;-61
2023/12/04 04:24:55;;;;;;;0.57;0.57;;;;;;;-2.08;100.00;100006.03;5109575;28;20836;-61
2023/12/04 04:27:22;;;;;;;0.73;0.73;;;;;;;-2.14;100.00;100006.06;5109913;28;20471;-61
2023/12/04 04:29:49;;;;;;;0.40;0.40;;;;;;;-2.14;100.00;100011.06;5109412;28;20989;-61
2023/12/04 04:32:16;;;;;;;0.73;0.73;;;;;;;-2.18;100.00;100005.25;5109219;28;20870;-61
2023/12/04 04:34:43;;;;;;;0.87;0.30;;;;;;;-2.10;100.00;100016.03;5109635;28;20462;-61
2023/12/04 04:37:09;;;;;;;1.50;1.07;;;;;;;-2.09;100.00;100020.22;5109294;28;20451;-61
2023/12/04 04:39:37;;;;;;;0.40;0.40;;;;;;;-2.18;100.00;100022.78;5109268;28;20975;-61
2023/12/04 04:42:05;;;;;;;0.50;0.50;;;;;;;-2.15;100.00;100029.44;5109106;28;20498;-61
2023/12/04 04:44:32;;;;;;;0.37;0.37;;;;;;;-2.08;100.00;100031.06;5109327;28;21143;-61
2023/12/04 04:46:58;;;;;;;0.60;0.60;;;;;;;-2.13;100.00;100026.06;5109087;28;20447;-61
2023/12/04 04:49:25;;;;;;;0.50;0.50;;;;;;;-2.14;100.00;100031.94;5109359;28;20463;-61
2023/12/04 04:51:52;;;;;;;5.70;0.93;;;;;;;-2.16;100.00;100032.78;5109029;28;21013;-61
2023/12/04 04:54:19;;;;;;;0.10;0.10;;;;;;;-2.28;100.00;100027.00;5109326;28;20458;-61
2023/12/04 04:56:47;;;;;;;1.17;1.07;;;;;;;-2.34;100.00;100028.69;5109014;28;20534;-61
2023/12/04 04:59:14;;;;;;;0.77;0.77;;;;;;;-2.29;100.00;100034.53;5108959;28;20458;-61
2023/12/04 05:01:41;;;;;;;0.40;0.40;;;;;;;-2.30;100.00;100040.34;5108811;28;21061;-61
2023/12/04 05:04:08;;;;;;;1.50;0.80;;;;;;;-2.29;100.00;100042.88;5109016;28;20814;-61
2023/12/04 05:06:34;;;;;;;0.73;0.73;;;;;;;-2.36;100.00;100041.22;5108790;28;20447;-61
2023/12/04 05:09:01;;;;;;;0.70;0.70;;;;;;;-2.23;100.00;100042.00;5109164;28;20455;-61
2023/12/04 05:11:28;;;;;;;0.20;0.20;;;;;;;-2.25;100.00;100041.19;5109021;28;20455;-61
2023/12/04 05:13:56;;;;;;;0.50;0.50;;;;;;;-2.24;100.00;100052.88;5108822;28;20481;-61
2023/12/04 05:16:23;;;;;;;2.33;0.77;;;;;;;-2.22;100.00;100041.16;5108864;28;20455;-61
2023/12/04 05:18:50;;;;;;;0.70;0.60;;;;;;;-2.20;100.00;100042.00;5108938;28;20838;-61
2023/12/04 05:21:16;;;;;;;1.50;1.03;;;;;;;-2.16;100.00;100063.66;5109019;28;20510;-61
2023/12/04 05:23:43;;;;;;;0.40;0.40;;;;;;;-2.17;100.00;100069.53;5108992;28;20488;-61
2023/12/04 05:26:10;;;;;;;0.40;0.40;;;;;;;-2.17;100.00;100067.03;5108870;28;20671;-61
2023/12/04 05:28:37;;;;;;;1.00;0.73;;;;;;;-2.21;100.00;100070.41;5108735;28;20447;-61
2023/12/04 05:31:05;;;;;;;0.53;0.40;;;;;;;-2.38;100.00;100069.63;5108932;28;20447;-61
2023/12/04 05:33:32;;;;;;;0.77;0.40;;;;;;;-2.53;100.00;100068.00;5108490;28;20963;-61
2023/12/04 05:36:00;;;;;;;0.40;0.40;;;;;;;-2.58;100.00;100065.50;5108580;28;20629;-61
2023/12/04 05:38:27;;;;;;;0.50;0.50;;;;;;;-2.47;100.00;100057.13;5108978;28;20443;-61
2023/12/04 05:40:55;;;;;;;1.17;1.07;;;;;;;-2.49;100.00;100058.81;5108373;28;20796;-61
2023/12/04 05:43:21;;;;;;;0.57;0.57;;;;;;;-2.51;100.00;100076.34;5108613;28;20502;-61
2023/12/04 05:45:48;;;;;;;0.23;0.23;;;;;;;-2.41;100.00;100070.47;5108443;28;20959;-60
2023/12/04 05:48:16;;;;;;;0.63;0.63;;;;;;;-2.48;100.00;100076.31;5108608;28;20451;-60
2023/12/04 05:50:43;;;;;;;0.40;0.40;;;;;;;-2.59;100.00;100083.88;5108688;28;20439;-61
2023/12/04 05:53:10;;;;;;;0.70;0.70;;;;;;;-2.54;100.00;100077.19;5108760;28;20443;-60
2023/12/04 05:55:36;;;;;;;0.20;0.20;;;;;;;-2.54;100.00;100071.34;5108705;28;20455;-61
2023/12/04 05:58:03;;;;;;;0.40;0.40;;;;;;;-2.57;100.00;100067.16;5108324;28;20449;-61
2023/12/04 06:00:30;;;;;;;0.60;0.60;;;;;;;-2.60;100.00;100072.19;5112481;28;20443;-61
2023/12/04 06:02:57;;;;;;;0.30;0.30;;;;;;;-2.55;100.00;100080.53;5112210;28;20446;-60
2023/12/04 06:05:25;;;;;;;0.60;0.60;;;;;;;-2.53;100.00;100073.84;5112548;28;20450;-60
2023/12/04 06:07:52;;;;;;;0.60;0.27;;;;;;;-2.47;100.00;100082.16;5112465;28;20443;-60
2023/12/04 06:10:19;;;;;;;0.60;0.60;;;;;;;-2.48;100.00;100091.34;5112513;28;20458;-60
2023/12/04 06:12:45;;;;;;;1.00;0.90;;;;;;;-2.47;100.00;100082.16;5112116;27;20450;-60
2023/12/04 06:15:12;;;;;;;0.93;0.70;;;;;;;-2.44;100.00;100089.66;5112011;28;20855;-60
2023/12/04 06:17:39;;;;;;;1.03;0.97;;;;;;;-2.36;100.00;100090.47;5112070;28;20447;-60
2023/12/04 06:20:07;;;;;;;0.57;0.57;;;;;;;-2.39;100.00;100096.31;5112090;28;20454;-60
2023/12/04 06:22:36;;;;;;;1.47;1.20;;;;;;;-2.40;100.00;100093.84;5111908;28;20875;-61
2023/12/04 06:25:04;;;;;;;0.57;0.57;;;;;;;-2.34;100.00;100098.81;5111919;28;20447;-61
2023/12/04 06:27:31;;;;;;;0.33;0.33;;;;;;;-2.35;100.00;100099.66;5111985;27;20458;-61
2023/12/04 06:29:59;;;;;;;0.70;0.37;;;;;;;-2.23;100.00;100097.13;5111853;28;20453;-61
2023/12/04 06:32:26;;;;;;;0.60;0.60;;;;;;;-2.25;100.00;100093.78;5111947;28;20470;-61
2023/12/04 06:34:55;;;;;;;0.30;0.30;;;;;;;-2.21;100.00;100090.44;5111684;28;20451;-60
2023/12/04 06:37:22;;;;;;;0.40;0.40;;;;;;;-2.15;100.00;100104.59;5111798;28;20487;-60
2023/12/04 06:39:53;;;;;;;1.37;1.03;;;;;;;-2.06;100.00;100100.38;5112038;28;20443;-60
2023/12/04 06:42:21;;;;;;;0.83;0.83;;;;;;;-1.98;100.00;100107.00;5111844;28;20475;-60
2023/12/04 06:44:48;;;;;;;1.13;0.97;;;;;;;-1.84;100.00;100117.81;5111561;28;20451;-61
2023/12/04 06:47:18;;;;;;;0.50;0.43;;;;;;;-1.87;100.00;100115.31;5111485;28;20451;-61
2023/12/04 06:49:45;;;;;;;0.77;0.73;;;;;;;-1.73;100.00;100118.59;5111748;28;20814;-61
2023/12/04 06:52:12;;;;;;;0.40;0.40;;;;;;;-1.65;100.00;100121.91;5111689;28;21006;-61
2023/12/04 06:54:39;;;;;;;0.30;0.30;;;;;;;-1.43;100.00;100122.56;5111772;28;20447;-61
2023/12/04 06:57:07;;;;;;;0.30;0.30;;;;;;;-1.15;100.00;100133.25;5111498;28;20451;-61
2023/12/04 06:59:34;;;;;;;0.67;0.67;;;;;;;-0.96;100.00;100138.13;5111560;28;20455;-60
2023/12/04 07:02:01;;;;;;;1.30;1.20;;;;;;;-0.79;100.00;100138.81;5111602;28;20494;-61
2023/12/04 07:04:28;;;;;;;3.17;1.13;;;;;;;-0.79;100.00;100141.31;5111118;28;20200;-60
2023/12/04 07:06:55;;;;;;;2.50;0.67;;;;;;;-0.70;100.00;100146.28;5111113;28;20668;-60
2023/12/04 07:09:22;;;;;;;0.57;0.57;;;;;;;-0.55;100.00;100141.97;5111078;28;20204;-60
2023/12/04 07:11:49;;;;;;;0.70;0.63;;;;;;;-0.46;100.00;100149.41;5111092;28;20292;-60
2023/12/04 07:14:17;;;;;;;2.83;1.00;;;;;;;-0.32;100.00;100147.56;5111166;28;20193;-61
2023/12/04 07:16:44;;;;;;;0.63;0.63;;;;;;;-0.20;100.00;100150.78;5110614;28;20221;-60
2023/12/04 07:19:11;;;;;;;1.93;1.37;;;;;;;-0.26;100.00;100157.56;5111227;28;20200;-60
2023/12/04 07:21:38;;;;;;;2.20;0.63;;;;;;;-0.29;100.00;100147.53;5110665;28;20244;-60
2023/12/04 07:24:05;;;;;;;1.97;0.60;;;;;;;-0.27;100.00;100153.34;5110822;28;20266;-61
2023/12/04 07:26:35;;;;;;;1.23;1.03;;;;;;;-0.19;100.00;100160.00;5110641;28;20270;-60
2023/12/04 07:29:02;;;;;;;1.00;0.90;;;;;;;-0.33;100.00;100160.13;5110809;28;20220;-60
2023/12/04 07:31:30;;;;;;;0.80;0.80;;;;;;;-0.34;100.00;100166.84;5110629;28;20212;-60
2023/12/04 07:34:00;;;;;;;1.10;1.00;;;;;;;-0.36;99.78;100155.97;5110623;28;20413;-60
2023/12/04 07:36:27;;;;;;;2.20;1.20;;;;;;;-0.33;100.00;100165.16;5110796;28;20284;-60
2023/12/04 07:38:54;;;;;;;0.73;0.73;;;;;;;-0.30;99.83;100167.66;5109983;28;20521;-61
2023/12/04 07:41:21;;;;;;;0.53;0.53;;;;;;;-0.25;100.00;100164.22;5108636;28;20264;-60
2023/12/04 07:43:48;;;;;;;2.73;1.40;;;;;;;-0.24;99.23;100155.00;5110816;28;20202;-60
2023/12/04 07:46:15;;;;;;;1.50;0.93;;;;;;;-0.19;98.72;100160.00;5110405;28;20443;-60
2023/12/04 07:48:45;;;;;;;0.60;0.60;;;;;;;-0.10;98.68;100164.91;5110639;28;20205;-60
2023/12/04 07:51:12;;;;;;;0.93;0.67;;;;;;;0.04;98.95;100165.59;5110308;28;20205;-60
2023/12/04 07:53:39;;;;;;;1.30;0.97;;;;;;;0.15;97.16;100158.75;5110294;28;20591;-60
2023/12/04 07:56:07;;;;;;;1.80;1.27;;;;;;;0.23;95.91;100166.19;5110359;28;20210;-60
2023/12/04 07:58:34;;;;;;;0.60;0.60;;;;;;;0.37;95.38;100171.88;5110615;27;20202;-60
2023/12/04 08:01:01;;;;;;;1.00;0.90;;;;;;;0.48;94.59;100176.75;5109909;28;20221;-60
2023/12/04 08:03:28;;;;;;;3.50;1.10;;;;;;;0.64;95.68;100178.22;5109933;28;20662;-60
2023/12/04 08:05:56;;;;;;;1.43;0.73;;;;;;;0.89;94.79;100175.34;5109946;28;20201;-60
2023/12/04 08:08:23;;;;;;;0.67;0.67;;;;;;;1.28;95.02;100185.63;5109941;28;20590;-60
2023/12/04 08:10:50;;;;;;;0.47;0.43;;;;;;;1.62;92.74;100185.06;5109961;28;20204;-60
2023/12/04 08:13:17;;;;;;;1.23;0.90;;;;;;;1.52;90.03;100182.72;5109824;27;20208;-60
2023/12/04 08:15:44;;;;;;;1.37;1.07;;;;;;;1.46;88.38;100177.78;5109517;28;20296;-60
2023/12/04 08:18:11;;;;;;;0.87;0.60;;;;;;;1.67;90.39;100179.09;5109857;28;20250;-60
2023/12/04 08:20:38;;;;;;;0.80;0.80;;;;;;;1.79;88.10;100188.09;5109487;28;20201;-60
2023/12/04 08:23:06;;;;;;;0.80;0.80;;;;;;;1.87;87.30;100182.94;5109125;28;20721;-60
2023/12/04 08:25:33;;;;;;;0.57;0.57;;;;;;;1.96;86.70;100196.19;5109644;28;20193;-60
2023/12/04 08:28:00;;;;;;;1.27;0.97;;;;;;;2.01;85.49;100199.47;5109547;28;20689;-60
2023/12/04 08:30:28;;;;;;;1.70;1.07;;;;;;;1.99;85.75;100202.88;5109596;28;20198;-60
2023/12/04 08:32:54;;;;;;;0.87;0.60;;;;;;;2.29;86.81;100211.50;5109576;28;20543;-60
2023/12/04 08:35:21;;;;;;;2.17;1.10;;;;;;;2.68;85.21;100206.50;5109380;28;20202;-60
2023/12/04 08:37:48;;;;;;;2.13;1.03;;;;;;;2.73;83.38;100214.78;5109620;28;20197;-60
2023/12/04 08:40:17;;;;;;;0.97;0.93;;;;;;;2.68;81.13;100217.44;5109560;28;20201;-60
2023/12/04 08:42:44;;;;;;;3.00;1.17;;;;;;;2.84;80.88;100212.84;5109704;28;20236;-60
2023/12/04 08:45:11;;;;;;;2.73;1.50;;;;;;;2.64;80.11;100215.81;5109172;28;20231;-60
2023/12/04 08:47:38;;;;;;;2.37;1.07;;;;;;;2.59;80.83;100222.69;5109096;28;20278;-60
2023/12/04 08:50:06;;;;;;;2.73;1.07;;;;;;;2.63;81.59;100223.44;5109504;28;20224;-60
2023/12/04 08:52:33;;;;;;;2.03;1.50;;;;;;;2.94;79.89;100224.44;5109521;28;20193;-60
2023/12/04 08:55:01;;;;;;;0.93;0.80;;;;;;;3.02;79.77;100225.94;5109257;28;20228;-60
2023/12/04 08:57:30;;;;;;;0.70;0.70;;;;;;;3.06;78.20;100230.91;5108968;28;20208;-60
2023/12/04 08:59:56;;;;;;;0.90;0.90;;;;;;;2.77;79.17;100216.41;5108987;28;20689;-60
2023/12/04 09:02:23;;;;;;;0.93;0.60;;;;;;;2.82;79.68;100218.81;5109199;28;20229;-60
2023/12/04 09:04:50;;;;;;;2.87;1.77;;;;;;;2.92;80.08;100221.09;5109190;28;20579;-60
2023/12/04 09:07:17;;;;;;;1.70;1.60;;;;;;;2.88;79.83;100214.47;5109255;27;20200;-60
2023/12/04 09:09:44;;;;;;;1.40;0.90;;;;;;;3.17;81.27;100206.22;5108874;28;20213;-60
2023/12/04 09:12:11;;;;;;;2.47;1.47;;;;;;;3.31;76.50;100213.44;5108911;28;20597;-60
2023/12/04 09:14:39;;;;;;;0.90;0.90;;;;;;;3.24;76.57;100211.94;5108973;28;20676;-60
2023/12/04 09:17:06;;;;;;;0.67;0.67;;;;;;;3.39;79.23;100211.56;5108606;28;20662;-60
2023/12/04 09:19:33;;;;;;;0.90;0.83;;;;;;;3.38;76.60;100209.91;5109081;28;20223;-60
2023/12/04 09:22:00;;;;;;;1.33;0.80;;;;;;;3.79;74.67;100210.56;5108609;28;20228;-60
2023/12/04 09:24:27;;;;;;;2.57;1.40;;;;;;;3.78;75.83;100198.78;5108724;28;20197;-60
2023/12/04 09:26:55;;;;;;;3.73;1.60;;;;;;;4.42;75.09;100197.84;5108783;28;20205;-60
2023/12/04 09:29:23;;;;;;;2.10;1.20;;;;;;;4.32;71.54;100204.88;5109023;28;20229;-60
2023/12/04 09:31:52;;;;;;;1.60;0.97;;;;;;;4.09;70.64;100203.00;5108737;28;20217;-59
2023/12/04 09:34:20;;;;;;;1.77;1.33;;;;;;;4.12;70.72;100192.78;5112562;28;20250;-60
2023/12/04 09:36:47;;;;;;;2.63;1.47;;;;;;;4.37;71.52;100189.56;5112964;28;20196;-60
2023/12/04 09:39:14;;;;;;;1.80;1.27;;;;;;;5.13;70.67;100191.47;5112992;28;20339;-60
2023/12/04 09:41:42;;;;;;;4.97;1.33;;;;;;;5.07;67.38;100179.00;5112771;28;20204;-60
2023/12/04 09:44:09;;;;;;;1.40;1.17;;;;;;;4.77;70.91;100166.44;5112777;28;20208;-60
2023/12/04 09:46:36;;;;;;;1.40;1.27;;;;;;;5.04;70.73;100166.44;5112722;28;20596;-60
2023/12/04 09:49:05;;;;;;;1.03;0.93;;;;;;;5.41;69.41;100168.56;5112854;27;20201;-60
2023/12/04 09:51:32;;;;;;;1.27;1.10;;;;;;;5.69;66.78;100158.31;5112831;28;20209;-61
2023/12/04 09:54:03;;;;;;;1.67;1.30;;;;;;;5.58;66.92;100151.06;5112650;28;20201;-60
2023/12/04 09:56:30;;;;;;;2.10;1.60;;;;;;;5.67;62.23;100155.84;5112641;28;20190;-60
2023/12/04 09:59:00;;;;;;;3.17;1.57;;;;;;;5.49;66.49;100146.31;5112744;28;20228;-60
2023/12/04 10:01:29;;;;;;;4.10;2.03;;;;;;;5.71;65.51;100143.03;5112751;28;20224;-60
2023/12/04 10:03:58;;;;;;;2.27;1.20;;;;;;;5.70;64.39;100138.81;5112575;28;20233;-60
2023/12/04 10:06:28;;;;;;;1.40;1.30;;;;;;;5.85;62.95;100133.22;5112355;28;20670;-60
2023/12/04 10:08:57;;;;;;;3.33;1.37;;;;;;;5.99;65.96;100131.06;5112562;28;20205;-60
2023/12/04 10:11:24;;;;;;;1.67;1.30;;;;;;;5.70;63.97;100134.56;5112333;28;20201;-61
2023/12/04 10:13:51;;;;;;;1.33;0.97;;;;;;;6.01;64.48;100129.25;5112336;28;20254;-60
2023/12/04 10:16:33;;;;;;;1.60;1.27;;;;;;;5.95;62.64;100137.09;5112096;28;20631;-61
2023/12/04 10:19:15;;;;;;;1.83;1.40;;;;;;;6.02;62.38;100132.63;5112124;28;20228;-62
2023/12/04 10:21:43;;;;;;;2.77;1.20;;;;;;;6.11;63.31;100138.22;5112115;28;20193;-61
2023/12/04 10:24:10;;;;;;;2.63;1.83;;;;;;;6.30;63.14;100145.13;5110600;28;20701;-61
2023/12/04 10:26:37;;;;;;;1.03;1.00;;;;;;;6.44;62.14;100153.06;5111055;28;20216;-61
2023/12/04 10:29:06;;;;;;;3.43;1.87;;;;;;;6.49;60.88;100146.09;5112265;28;20220;-61
2023/12/04 10:31:36;;;;;;;1.43;1.23;;;;;;;6.28;61.25;100147.75;5111850;28;20197;-61
2023/12/04 10:34:06;;;;;;;2.07;1.37;;;;;;;6.58;61.45;100144.91;5111808;28;20309;-61
2023/12/04 10:36:33;;;;;;;2.27;1.37;;;;;;;6.72;59.47;100142.66;5111673;28;20205;-61
2023/12/04 10:39:04;;;;;;;2.07;1.40;;;;;;;6.78;60.27;100151.75;5111768;28;20284;-61
2023/12/04 10:41:31;;;;;;;2.20;1.53;;;;;;;6.62;59.34;100140.53;5111911;28;20228;-61
2023/12/04 10:44:00;;;;;;;2.33;1.60;;;;;;;6.40;59.90;100146.47;5111174;28;20672;-61
2023/12/04 10:46:27;;;;;;;2.77;1.50;;;;;;;6.68;61.50;100140.28;5111977;28;20233;-61
2023/12/04 10:48:54;;;;;;;4.57;2.30;;;;;;;6.67;58.10;100143.72;5111442;28;20670;-61
2023/12/04 10:51:22;;;;;;;2.43;1.57;;;;;;;6.86;58.52;100144.63;5111625;28;20229;-61
2023/12/04 10:53:49;;;;;;;4.60;1.47;;;;;;;7.06;58.39;100145.56;5111333;28;20254;-61
2023/12/04 10:56:26;;;;;;;3.87;1.60;;;;;;;6.88;57.03;100137.78;5111444;28;20207;-61
2023/12/04 10:58:54;;;;;;;3.07;1.87;;;;;;;6.95;56.58;100138.34;5111485;28;20193;-61
2023/12/04 11:01:23;;;;;;;3.30;1.60;;;;;;;7.01;57.35;100131.34;5111281;28;20710;-61
2023/12/04 11:03:53;;;;;;;2.77;1.63;;;;;;;6.23;56.04;100143.72;5111424;28;20290;-61
2023/12/04 11:06:23;;;;;;;1.47;1.23;;;;;;;6.27;59.30;100140.16;5111225;28;20193;-61
2023/12/04 11:08:53;;;;;;;2.13;1.73;;;;;;;6.32;59.99;100130.69;5111132;28;20201;-61
2023/12/04 11:11:28;;;;;;;2.50;1.57;;;;;;;5.97;59.04;100132.81;5111335;28;20228;-61
2023/12/04 11:13:57;;;;;;;2.40;1.77;;;;;;;6.37;61.39;100131.34;5111007;28;20621;-61
2023/12/04 11:16:30;;;;;;;1.67;1.30;;;;;;;6.23;60.20;100131.03;5111055;27;20246;-61
2023/12/04 11:19:02;;;;;;;2.63;1.90;;;;;;;6.58;59.18;100130.50;5111178;28;20205;-61
2023/12/04 11:21:30;;;;;;;1.57;1.33;;;;;;;6.39;57.76;100134.63;5110989;28;20201;-61
2023/12/04 11:23:58;;;;;;;1.40;1.30;;;;;;;6.71;60.14;100130.81;5110876;28;20229;-61
2023/12/04 11:26:27;;;;;;;5.20;1.77;;;;;;;6.67;58.23;100133.56;5110972;28;20247;-61